Time;durP1;ratioP1;P1;durP2;ratioP2;P2;SDS_P1;SDS_P2;PMS_P1;PMS_P2;Temp;Humidity;BMP_temperature;BMP_pressure;BME280_temperature;BME280_humidity;BME280_pressure;Samples;Min_cycle;Max_cycle;Signal;HPM_P1;HPM_P2
2022/07/23 00:01:36;;;;;;;5.47;2.47;;;;;;;;;;5010363;28;20561;-79
2022/07/23 00:04:03;;;;;;;5.10;2.70;;;;;;;;;;4995024;28;20687;-78
2022/07/23 00:06:30;;;;;;;15.47;4.00;;;;;;;;;;4994994;28;20699;-78
2022/07/23 00:08:59;;;;;;;47.73;5.23;;;;;;;;;;4965691;28;20200;-79
2022/07/23 00:11:26;;;;;;;9.03;2.77;;;;;;;;;;4961917;28;20258;-78
2022/07/23 00:13:55;;;;;;;23.90;4.10;;;;;;;;;;4995368;28;20232;-78
2022/07/23 00:16:23;;;;;;;6.00;2.70;;;;;;;;;;4961820;28;20208;-78
2022/07/23 00:18:50;;;;;;;4.43;2.40;;;;;;;;;;4994838;28;20231;-78
2022/07/23 00:21:17;;;;;;;4.03;3.20;;;;;;;;;;4961761;28;20204;-78
2022/07/23 00:23:44;;;;;;;4.80;2.63;;;;;;;;;;4977735;28;20208;-78
2022/07/23 00:26:12;;;;;;;6.80;3.17;;;;;;;;;;4977492;28;20204;-78
2022/07/23 00:28:40;;;;;;;4.97;2.57;;;;;;;;;;4977526;28;20742;-78
2022/07/23 00:31:07;;;;;;;3.13;2.93;;;;;;;;;;4961551;28;20208;-78
2022/07/23 00:33:35;;;;;;;4.30;2.50;;;;;;;;;;4977781;28;20208;-78
2022/07/23 00:36:02;;;;;;;6.50;2.97;;;;;;;;;;4992795;28;20200;-78
2022/07/23 00:38:29;;;;;;;5.33;2.47;;;;;;;;;;4977186;28;20228;-78
2022/07/23 00:40:56;;;;;;;4.80;3.27;;;;;;;;;;4961013;28;20278;-78
2022/07/23 00:43:25;;;;;;;3.53;3.00;;;;;;;;;;4994493;28;20212;-78
2022/07/23 00:45:52;;;;;;;3.70;2.90;;;;;;;;;;4993930;28;20566;-78
2022/07/23 00:48:19;;;;;;;3.80;2.40;;;;;;;;;;4977203;28;20208;-78
2022/07/23 00:50:47;;;;;;;6.40;3.13;;;;;;;;;;4993695;28;20578;-78
2022/07/23 00:53:15;;;;;;;3.63;2.93;;;;;;;;;;4977114;28;20204;-78
2022/07/23 00:55:42;;;;;;;6.93;3.50;;;;;;;;;;4975286;28;20587;-78
2022/07/23 00:58:10;;;;;;;3.73;3.07;;;;;;;;;;4993394;28;20224;-78
2022/07/23 01:03:59;;;;;;;4.00;2.83;;;;;;;;;;4994385;28;20175;-77
2022/07/23 01:06:27;;;;;;;2.93;2.63;;;;;;;;;;4993906;28;20667;-78
2022/07/23 01:08:55;;;;;;;2.93;2.63;;;;;;;;;;4960884;28;20662;-78
2022/07/23 01:11:23;;;;;;;3.50;3.13;;;;;;;;;;4993446;28;20208;-78
2022/07/23 01:13:50;;;;;;;6.20;2.60;;;;;;;;;;4976520;28;20236;-78
2022/07/23 01:16:18;;;;;;;3.60;2.70;;;;;;;;;;4976856;28;20630;-78
2022/07/23 01:18:45;;;;;;;3.00;2.80;;;;;;;;;;4975667;28;20228;-79
2022/07/23 01:21:17;;;;;;;4.97;3.10;;;;;;;;;;4976845;28;20203;-78
2022/07/23 01:23:46;;;;;;;19.37;3.83;;;;;;;;;;4991863;28;20210;-79
2022/07/23 01:26:16;;;;;;;3.43;2.63;;;;;;;;;;4976259;28;20263;-79
2022/07/23 01:28:45;;;;;;;9.53;3.70;;;;;;;;;;4976829;28;20204;-78
2022/07/23 01:31:12;;;;;;;3.40;2.80;;;;;;;;;;4976178;28;20744;-79
2022/07/23 01:33:39;;;;;;;3.17;2.97;;;;;;;;;;4993607;28;20661;-78
2022/07/23 01:36:07;;;;;;;8.60;3.10;;;;;;;;;;4993366;28;20204;-78
2022/07/23 01:38:35;;;;;;;4.17;2.70;;;;;;;;;;4975963;28;20286;-78
2022/07/23 01:41:03;;;;;;;3.40;2.97;;;;;;;;;;4976483;28;20200;-78
2022/07/23 01:43:33;;;;;;;2.80;2.60;;;;;;;;;;4959952;28;20729;-78
2022/07/23 01:46:01;;;;;;;4.07;2.93;;;;;;;;;;4993333;28;20204;-78
2022/07/23 01:48:29;;;;;;;5.10;3.00;;;;;;;;;;4992708;28;20208;-78
2022/07/23 01:50:57;;;;;;;3.37;3.07;;;;;;;;;;4975558;28;20203;-78
2022/07/23 01:53:42;;;;;;;5.60;3.13;;;;;;;;;;4992794;28;20208;-78
2022/07/23 01:56:14;;;;;;;4.83;3.63;;;;;;;;;;4992367;28;20200;-78
2022/07/23 01:58:42;;;;;;;3.97;3.23;;;;;;;;;;4993142;28;20220;-78
2022/07/23 02:01:09;;;;;;;7.43;2.83;;;;;;;;;;4992519;28;20208;-79
2022/07/23 02:03:36;;;;;;;8.33;3.20;;;;;;;;;;4993446;28;20204;-78
2022/07/23 02:06:05;;;;;;;3.33;2.80;;;;;;;;;;4992924;28;20200;-79
2022/07/23 02:08:32;;;;;;;3.23;2.80;;;;;;;;;;4992776;28;20205;-80
2022/07/23 02:10:59;;;;;;;5.97;3.13;;;;;;;;;;4992737;28;20200;-80
2022/07/23 02:13:32;;;;;;;5.10;2.83;;;;;;;;;;4992777;28;20223;-80
2022/07/23 02:16:00;;;;;;;3.60;2.77;;;;;;;;;;4993014;28;20200;-80
2022/07/23 02:18:27;;;;;;;13.37;3.73;;;;;;;;;;4990308;28;20237;-79
2022/07/23 02:20:54;;;;;;;5.00;2.73;;;;;;;;;;4974986;28;20238;-80
2022/07/23 02:23:27;;;;;;;10.97;3.40;;;;;;;;;;4987963;28;20203;-80
2022/07/23 02:29:17;;;;;;;4.87;3.43;;;;;;;;;;5012604;28;20190;-80
2022/07/23 02:31:43;;;;;;;3.30;2.93;;;;;;;;;;5011967;28;20207;-80
2022/07/23 02:34:11;;;;;;;3.23;2.80;;;;;;;;;;5012447;28;20199;-80
2022/07/23 02:36:39;;;;;;;4.50;3.00;;;;;;;;;;4994883;28;20294;-80
2022/07/23 02:39:06;;;;;;;5.23;3.47;;;;;;;;;;4978718;28;20223;-80
2022/07/23 02:41:37;;;;;;;4.13;3.20;;;;;;;;;;4978871;28;20215;-80
2022/07/23 02:44:18;;;;;;;3.27;2.97;;;;;;;;;;5011077;28;20211;-81
2022/07/23 02:46:47;;;;;;;5.03;3.80;;;;;;;;;;4995800;28;20669;-80
2022/07/23 02:53:13;;;;;;;5.67;3.50;;;;;;;;;;5012282;28;20633;-80
2022/07/23 02:55:42;;;;;;;5.73;3.40;;;;;;;;;;5011742;28;20199;-81
2022/07/23 02:58:09;;;;;;;4.70;3.30;;;;;;;;;;5012144;28;20223;-81
2022/07/23 03:00:38;;;;;;;4.13;2.93;;;;;;;;;;5012119;28;20639;-80
2022/07/23 03:03:07;;;;;;;5.87;3.17;;;;;;;;;;4995237;28;20195;-81
2022/07/23 03:05:34;;;;;;;3.53;3.23;;;;;;;;;;4994129;28;20207;-80
2022/07/23 03:08:01;;;;;;;5.87;3.67;;;;;;;;;;4978212;28;20226;-81
2022/07/23 03:10:28;;;;;;;6.20;3.53;;;;;;;;;;5011694;28;20206;-81
2022/07/23 03:12:56;;;;;;;5.37;3.53;;;;;;;;;;4990381;28;20236;-80
2022/07/23 03:15:23;;;;;;;9.90;3.10;;;;;;;;;;4990849;28;20204;-80
2022/07/23 03:17:51;;;;;;;6.97;3.43;;;;;;;;;;4991633;28;20286;-80
2022/07/23 03:23:45;;;;;;;4.90;3.10;;;;;;;;;;4993884;28;20711;-80
2022/07/23 03:26:20;;;;;;;16.43;4.47;;;;;;;;;;4995801;28;20214;-80
2022/07/23 03:28:48;;;;;;;14.97;4.50;;;;;;;;;;5011113;28;20207;-80
2022/07/23 03:31:20;;;;;;;13.13;3.90;;;;;;;;;;4994096;28;20203;-80
2022/07/23 03:33:54;;;;;;;13.73;3.67;;;;;;;;;;4994697;28;20215;-80
2022/07/23 03:36:25;;;;;;;10.87;4.73;;;;;;;;;;4978311;28;20211;-80
2022/07/23 03:39:18;;;;;;;9.83;3.53;;;;;;;;;;4994872;28;20310;-80
2022/07/23 03:41:50;;;;;;;8.27;3.33;;;;;;;;;;4994810;28;20250;-80
2022/07/23 03:54:19;;;;;;;9.40;3.47;;;;;;;;;;4976301;28;20665;-80
2022/07/23 03:57:17;;;;;;;9.93;3.33;;;;;;;;;;4973005;28;20213;-79
2022/07/23 03:59:46;;;;;;;13.23;4.27;;;;;;;;;;4976266;28;20251;-80
2022/07/23 04:02:13;;;;;;;14.97;4.77;;;;;;;;;;4958499;28;20201;-80
2022/07/23 04:04:41;;;;;;;12.67;4.30;;;;;;;;;;4974306;28;20201;-80
2022/07/23 04:07:09;;;;;;;29.57;4.53;;;;;;;;;;4958777;28;20209;-81
2022/07/23 04:09:36;;;;;;;8.77;3.90;;;;;;;;;;4958549;28;20292;-81
2022/07/23 04:12:04;;;;;;;5.37;3.30;;;;;;;;;;4958540;28;20695;-81
2022/07/23 04:17:55;;;;;;;7.77;3.63;;;;;;;;;;4975758;28;20172;-81
2022/07/23 04:20:22;;;;;;;6.03;4.03;;;;;;;;;;4975524;28;20197;-81
2022/07/23 04:22:49;;;;;;;7.30;4.00;;;;;;;;;;4958546;28;20209;-81
2022/07/23 04:28:38;;;;;;;5.27;3.50;;;;;;;;;;4975692;28;20269;-81
2022/07/23 04:31:05;;;;;;;9.50;4.37;;;;;;;;;;4973566;28;20213;-81
2022/07/23 04:33:33;;;;;;;7.47;3.90;;;;;;;;;;4975553;28;20240;-81
2022/07/23 04:36:02;;;;;;;4.27;3.50;;;;;;;;;;4974955;28;20197;-81
2022/07/23 04:38:29;;;;;;;9.77;4.50;;;;;;;;;;4973887;28;20619;-81
2022/07/23 04:40:57;;;;;;;8.87;4.30;;;;;;;;;;4973917;28;20710;-81
2022/07/23 04:43:24;;;;;;;18.47;5.07;;;;;;;;;;4973357;28;20209;-81
2022/07/23 04:45:52;;;;;;;10.60;4.67;;;;;;;;;;4974720;28;20209;-80
2022/07/23 04:48:20;;;;;;;12.13;4.33;;;;;;;;;;4972117;28;20205;-81
2022/07/23 04:57:51;;;;;;;7.90;3.73;;;;;;;;;;4994542;28;20176;-81
2022/07/23 05:00:22;;;;;;;4.40;3.90;;;;;;;;;;4993948;28;20200;-81
2022/07/23 05:02:50;;;;;;;9.87;4.43;;;;;;;;;;4993789;28;20665;-81
2022/07/23 05:05:17;;;;;;;5.73;3.80;;;;;;;;;;4990882;28;20215;-81
2022/07/23 05:07:45;;;;;;;10.53;4.50;;;;;;;;;;4993031;28;20641;-81
2022/07/23 05:10:12;;;;;;;4.50;3.37;;;;;;;;;;4993138;28;20204;-81
2022/07/23 05:12:39;;;;;;;5.53;3.83;;;;;;;;;;4995718;28;20231;-81
2022/07/23 05:15:12;;;;;;;5.60;3.73;;;;;;;;;;5012177;28;20199;-81
2022/07/23 05:18:13;;;;;;;5.07;3.90;;;;;;;;;;4996704;28;20257;-81
2022/07/23 05:20:41;;;;;;;6.87;4.33;;;;;;;;;;4974249;28;20211;-81
2022/07/23 05:23:09;;;;;;;7.30;4.17;;;;;;;;;;4971557;28;20205;-81
2022/07/23 05:25:37;;;;;;;6.23;4.43;;;;;;;;;;4974496;28;20232;-81
2022/07/23 05:28:07;;;;;;;7.67;4.33;;;;;;;;;;4972865;28;20209;-81
2022/07/23 05:30:36;;;;;;;5.77;4.17;;;;;;;;;;4974386;28;20217;-82
2022/07/23 05:33:04;;;;;;;12.70;4.10;;;;;;;;;;4972767;28;20227;-79
2022/07/23 05:35:40;;;;;;;4.77;3.80;;;;;;;;;;4977227;28;20200;-81
2022/07/23 05:38:08;;;;;;;3.90;3.20;;;;;;;;;;4992863;28;20218;-81
2022/07/23 05:44:47;;;;;;;5.43;4.07;;;;;;;;;;4993619;28;20218;-78
2022/07/23 05:50:08;;;;;;;5.80;3.73;;;;;;;;;;4991654;28;20659;-80
2022/07/23 05:52:38;;;;;;;4.37;3.47;;;;;;;;;;4989815;28;20192;-79
2022/07/23 05:55:18;;;;;;;11.50;4.37;;;;;;;;;;4988526;28;20203;-79
2022/07/23 05:57:58;;;;;;;6.17;3.97;;;;;;;;;;4957455;28;20270;-78
2022/07/23 06:03:53;;;;;;;3.83;3.40;;;;;;;;;;4991850;28;20616;-78
2022/07/23 06:06:46;;;;;;;5.17;4.03;;;;;;;;;;4991340;28;20259;-78
2022/07/23 06:09:46;;;;;;;3.93;3.40;;;;;;;;;;4991315;28;20207;-81
2022/07/23 06:18:04;;;;;;;5.07;3.57;;;;;;;;;;5002459;28;20685;-78
2022/07/23 06:20:48;;;;;;;6.57;3.50;;;;;;;;;;5011172;28;20273;-78
2022/07/23 06:23:46;;;;;;;6.30;4.23;;;;;;;;;;5009764;28;20227;-79
2022/07/23 06:26:20;;;;;;;4.33;3.60;;;;;;;;;;5009833;28;20574;-79
2022/07/23 06:28:47;;;;;;;7.10;3.40;;;;;;;;;;4993483;28;20203;-80
2022/07/23 06:31:24;;;;;;;9.70;3.50;;;;;;;;;;4974781;28;20262;-77
2022/07/23 06:34:00;;;;;;;3.83;3.47;;;;;;;;;;4993650;28;20666;-77
2022/07/23 06:36:47;;;;;;;9.70;3.97;;;;;;;;;;5007827;28;20282;-78
2022/07/23 06:39:23;;;;;;;4.78;3.60;;;;;;;;;;4992017;28;20223;-79
2022/07/23 06:42:15;;;;;;;5.80;4.07;;;;;;;;;;5008240;28;20577;-77
2022/07/23 06:44:43;;;;;;;4.35;3.50;;;;;;;;;;4994245;28;20199;-78
2022/07/23 06:47:11;;;;;;;7.70;4.20;;;;;;;;;;4993007;28;20257;-80
2022/07/23 06:49:40;;;;;;;4.57;3.80;;;;;;;;;;5012504;28;20206;-78
2022/07/23 06:52:10;;;;;;;5.60;4.03;;;;;;;;;;4994498;28;20740;-78
2022/07/23 06:54:37;;;;;;;10.52;3.83;;;;;;;;;;4991769;28;20204;-78
2022/07/23 06:57:04;;;;;;;5.13;3.65;;;;;;;;;;4992332;28;20282;-78
2022/07/23 06:59:31;;;;;;;6.03;3.20;;;;;;;;;;4977825;28;20599;-78
2022/07/23 07:01:58;;;;;;;9.23;4.80;;;;;;;;;;4994323;28;20196;-78
2022/07/23 07:04:25;;;;;;;9.80;4.00;;;;;;;;;;4979147;28;20632;-76
2022/07/23 07:06:52;;;;;;;7.13;4.85;;;;;;;;;;4995844;28;20563;-76
2022/07/23 07:09:21;;;;;;;7.53;4.10;;;;;;;;;;5013112;28;20662;-77
2022/07/23 07:15:16;;;;;;;4.95;3.63;;;;;;;;;;5005539;28;20683;-77
2022/07/23 07:17:44;;;;;;;6.13;4.28;;;;;;;;;;4979459;28;20196;-78
2022/07/23 07:20:11;;;;;;;6.15;3.53;;;;;;;;;;4981563;28;20597;-77
2022/07/23 07:22:38;;;;;;;5.13;4.57;;;;;;;;;;5015380;28;20211;-77
2022/07/23 07:25:09;;;;;;;7.75;4.22;;;;;;;;;;4996566;28;20207;-78
2022/07/23 07:27:36;;;;;;;6.53;3.60;;;;;;;;;;5009862;28;20215;-77
2022/07/23 07:30:04;;;;;;;5.07;3.40;;;;;;;;;;5015601;28;20282;-77
2022/07/23 07:32:32;;;;;;;5.82;3.90;;;;;;;;;;5015787;28;20214;-77
2022/07/23 07:34:59;;;;;;;6.00;4.25;;;;;;;;;;4982090;28;20200;-78
2022/07/23 07:37:26;;;;;;;6.40;3.85;;;;;;;;;;4978372;28;20212;-77
2022/07/23 07:39:53;;;;;;;8.90;4.18;;;;;;;;;;4994236;28;20576;-79
2022/07/23 07:42:22;;;;;;;5.00;4.13;;;;;;;;;;5001184;28;20200;-77
2022/07/23 07:44:49;;;;;;;5.82;3.90;;;;;;;;;;4996476;28;20559;-76
2022/07/23 07:47:21;;;;;;;5.13;3.83;;;;;;;;;;4976413;28;20234;-79
2022/07/23 07:49:48;;;;;;;5.93;3.75;;;;;;;;;;4995334;28;20211;-78
2022/07/23 07:52:15;;;;;;;6.93;3.90;;;;;;;;;;5009045;28;20206;-78
2022/07/23 07:54:43;;;;;;;13.35;4.18;;;;;;;;;;4975901;28;20670;-77
2022/07/23 07:57:10;;;;;;;6.35;3.65;;;;;;;;;;4978307;28;20245;-77
2022/07/23 07:59:48;;;;;;;4.72;3.97;;;;;;;;;;4984703;28;20227;-78
2022/07/23 08:02:15;;;;;;;5.80;3.92;;;;;;;;;;5012375;28;20627;-76
2022/07/23 08:04:44;;;;;;;12.20;4.43;;;;;;;;;;5013784;28;20210;-76
2022/07/23 08:07:12;;;;;;;6.82;4.05;;;;;;;;;;4980020;28;20199;-77
2022/07/23 08:09:42;;;;;;;4.60;4.20;;;;;;;;;;4993079;28;20198;-77
2022/07/23 08:12:10;;;;;;;6.82;4.22;;;;;;;;;;5012681;28;20196;-77
2022/07/23 08:14:37;;;;;;;7.82;4.25;;;;;;;;;;4972303;28;20287;-80
2022/07/23 08:17:06;;;;;;;6.10;3.88;;;;;;;;;;4974158;28;20584;-76
2022/07/23 08:19:34;;;;;;;7.47;5.13;;;;;;;;;;4981161;28;20224;-76
2022/07/23 08:22:02;;;;;;;7.15;4.53;;;;;;;;;;4991804;28;20200;-76
2022/07/23 08:24:29;;;;;;;4.05;3.65;;;;;;;;;;4990823;28;20682;-76
2022/07/23 08:26:57;;;;;;;4.00;3.53;;;;;;;;;;4976322;28;20204;-76
2022/07/23 08:29:24;;;;;;;10.98;4.95;;;;;;;;;;4976481;28;20204;-76
2022/07/23 08:32:32;;;;;;;8.02;5.13;;;;;;;;;;4984996;28;20196;-78
2022/07/23 08:35:00;;;;;;;6.22;4.45;;;;;;;;;;4992571;28;20228;-76
2022/07/23 08:37:28;;;;;;;10.45;4.97;;;;;;;;;;4993030;28;20287;-76
2022/07/23 08:39:56;;;;;;;5.15;4.65;;;;;;;;;;4992406;28;20303;-76
2022/07/23 08:42:23;;;;;;;5.25;4.75;;;;;;;;;;4992184;28;20255;-76
2022/07/23 08:44:51;;;;;;;6.60;4.13;;;;;;;;;;4990158;28;20698;-80
2022/07/23 08:47:18;;;;;;;7.65;4.63;;;;;;;;;;4992324;28;20554;-79
2022/07/23 08:49:46;;;;;;;4.57;4.18;;;;;;;;;;4992296;28;20204;-79
2022/07/23 08:52:15;;;;;;;7.18;4.50;;;;;;;;;;4987327;28;20284;-77
2022/07/23 08:54:42;;;;;;;5.97;4.65;;;;;;;;;;4991351;28;20642;-77
2022/07/23 08:57:09;;;;;;;7.65;4.10;;;;;;;;;;4992536;28;20199;-77
2022/07/23 08:59:37;;;;;;;9.57;4.18;;;;;;;;;;4993105;28;20290;-77
2022/07/23 09:02:05;;;;;;;5.13;4.40;;;;;;;;;;4992468;28;20200;-76
2022/07/23 09:04:32;;;;;;;4.80;4.45;;;;;;;;;;4976105;28;20204;-77
2022/07/23 09:07:00;;;;;;;6.18;4.32;;;;;;;;;;4990082;28;20211;-78
2022/07/23 09:09:35;;;;;;;5.13;4.10;;;;;;;;;;4990312;28;20211;-79
2022/07/23 09:12:06;;;;;;;4.43;3.90;;;;;;;;;;4991345;28;20199;-78
2022/07/23 09:14:41;;;;;;;9.07;4.20;;;;;;;;;;5000057;28;20333;-78
2022/07/23 09:17:12;;;;;;;9.43;4.50;;;;;;;;;;5011033;28;20199;-78
2022/07/23 09:19:40;;;;;;;8.63;4.38;;;;;;;;;;5011235;28;20299;-78
2022/07/23 09:22:21;;;;;;;7.05;5.03;;;;;;;;;;5011265;28;20287;-76
2022/07/23 09:25:08;;;;;;;8.13;4.18;;;;;;;;;;4981512;28;20192;-77
2022/07/23 09:27:52;;;;;;;4.97;4.18;;;;;;;;;;5012769;28;20199;-77
2022/07/23 09:37:15;;;;;;;6.45;4.00;;;;;;;;;;4993847;28;20555;-76
2022/07/23 09:39:43;;;;;;;5.88;4.03;;;;;;;;;;4991782;28;20585;-78
2022/07/23 09:42:19;;;;;;;6.57;3.80;;;;;;;;;;4995560;28;20210;-77
2022/07/23 09:48:12;;;;;;;6.40;3.75;;;;;;;;;;5013208;28;20171;-76
2022/07/23 09:50:39;;;;;;;8.00;4.55;;;;;;;;;;5012790;28;20265;-76
2022/07/23 09:53:06;;;;;;;5.35;4.05;;;;;;;;;;5013195;28;20291;-76
2022/07/23 09:55:36;;;;;;;4.50;4.10;;;;;;;;;;5011686;28;20210;-77
2022/07/23 09:58:08;;;;;;;4.82;4.05;;;;;;;;;;5011919;28;20624;-77
2022/07/23 10:00:35;;;;;;;4.97;4.07;;;;;;;;;;4989540;28;20227;-77
2022/07/23 10:03:05;;;;;;;6.93;4.72;;;;;;;;;;5010863;28;20195;-78
2022/07/23 10:05:32;;;;;;;4.53;4.13;;;;;;;;;;5013203;28;20196;-76
2022/07/23 10:08:01;;;;;;;7.88;4.55;;;;;;;;;;5012545;28;20217;-76
2022/07/23 10:10:31;;;;;;;5.85;3.85;;;;;;;;;;4994506;28;20207;-76
2022/07/23 10:15:45;;;;;;;7.70;5.00;;;;;;;;;;4994884;28;20226;-77
2022/07/23 10:18:15;;;;;;;10.38;4.85;;;;;;;;;;5011631;28;20202;-78
2022/07/23 10:20:42;;;;;;;7.20;4.10;;;;;;;;;;5013231;28;20223;-77
2022/07/23 10:23:16;;;;;;;6.30;4.63;;;;;;;;;;4995696;28;20199;-77
2022/07/23 10:25:47;;;;;;;7.50;5.70;;;;;;;;;;5012388;28;20196;-77
2022/07/23 10:31:50;;;;;;;8.68;4.80;;;;;;;;;;5012549;28;20162;-76
2022/07/23 10:34:22;;;;;;;8.70;4.45;;;;;;;;;;4994675;28;20199;-77
2022/07/23 10:36:54;;;;;;;6.70;4.60;;;;;;;;;;4994266;28;20257;-76
2022/07/23 10:39:24;;;;;;;5.18;4.07;;;;;;;;;;4994883;28;20253;-77
2022/07/23 10:41:52;;;;;;;6.95;5.03;;;;;;;;;;5012258;28;20226;-80
2022/07/23 10:44:22;;;;;;;11.43;4.88;;;;;;;;;;5011932;28;20207;-76
2022/07/23 10:49:52;;;;;;;6.32;4.43;;;;;;;;;;4965298;28;20573;-78
2022/07/23 10:55:46;;;;;;;6.18;4.80;;;;;;;;;;5012297;28;20223;-77
2022/07/23 11:01:37;;;;;;;8.90;4.68;;;;;;;;;;5012146;28;20191;-76
2022/07/23 11:07:12;;;;;;;7.20;4.85;;;;;;;;;;4994699;28;20231;-76
2022/07/23 11:09:42;;;;;;;8.02;4.68;;;;;;;;;;5011598;28;20298;-88
2022/07/23 11:12:36;;;;;;;7.72;4.40;;;;;;;;;;5012308;28;20207;-85
2022/07/23 11:15:05;;;;;;;6.18;4.63;;;;;;;;;;4992766;28;20223;-84
2022/07/23 11:17:34;;;;;;;5.20;4.38;;;;;;;;;;4993700;28;20291;-81
2022/07/23 11:20:33;;;;;;;5.82;4.55;;;;;;;;;;4992605;28;20207;-81
2022/07/23 11:23:04;;;;;;;5.22;4.30;;;;;;;;;;4994642;28;20196;-88
2022/07/23 11:28:53;;;;;;;5.78;4.15;;;;;;;;;;5012258;28;20163;-86
2022/07/23 11:31:25;;;;;;;5.47;4.32;;;;;;;;;;4994120;28;20211;-93
2022/07/23 11:34:25;;;;;;;6.13;4.45;;;;;;;;;;4994771;28;20207;-85
2022/07/23 11:36:55;;;;;;;8.85;4.80;;;;;;;;;;4992440;28;20203;-87
2022/07/23 11:40:08;;;;;;;8.32;5.32;;;;;;;;;;4993762;28;20246;-85
2022/07/23 11:42:38;;;;;;;10.25;5.05;;;;;;;;;;5010444;28;20242;-84
2022/07/23 11:45:08;;;;;;;11.85;5.22;;;;;;;;;;5012307;28;20646;-87
2022/07/23 11:50:58;;;;;;;5.75;4.45;;;;;;;;;;5015770;28;20230;-84
2022/07/23 11:53:28;;;;;;;6.53;4.40;;;;;;;;;;5013599;28;20211;-78
2022/07/23 11:56:05;;;;;;;6.90;5.47;;;;;;;;;;5015448;28;20566;-87
2022/07/23 12:01:59;;;;;;;9.10;5.40;;;;;;;;;;5015106;28;20187;-79
2022/07/23 12:07:50;;;;;;;10.02;4.55;;;;;;;;;;5015294;28;20704;-85
2022/07/23 12:10:20;;;;;;;11.00;6.03;;;;;;;;;;4981786;28;20258;-82
2022/07/23 12:12:50;;;;;;;12.32;5.00;;;;;;;;;;5015262;28;20204;-85
2022/07/23 12:18:39;;;;;;;8.45;5.47;;;;;;;;;;5015306;28;20158;-85
2022/07/23 12:21:08;;;;;;;8.60;4.57;;;;;;;;;;5014782;28;20254;-85
2022/07/23 12:23:38;;;;;;;8.05;5.15;;;;;;;;;;4997297;28;20207;-91
2022/07/23 12:26:07;;;;;;;9.35;4.47;;;;;;;;;;5014276;28;20203;-83
2022/07/23 12:28:37;;;;;;;10.10;4.78;;;;;;;;;;4997126;28;20203;-88
2022/07/23 12:31:04;;;;;;;8.63;4.82;;;;;;;;;;4998696;28;20287;-81
2022/07/23 12:43:46;;;;;;;9.52;4.82;;;;;;;;;;5014463;28;20159;-83
2022/07/23 12:46:15;;;;;;;10.45;4.82;;;;;;;;;;4995001;28;21531;-83
2022/07/23 12:48:53;;;;;;;8.35;4.80;;;;;;;;;;5013316;28;20234;-85
2022/07/23 12:54:42;;;;;;;14.55;4.55;;;;;;;;;;5014734;28;20167;-85
2022/07/23 12:57:09;;;;;;;11.07;5.10;;;;;;;;;;4995336;28;20206;-84
2022/07/23 12:59:38;;;;;;;7.78;4.35;;;;;;;;;;5009074;28;20200;-87
2022/07/23 13:05:28;;;;;;;10.98;6.00;;;;;;;;;;5011638;28;20206;-86
2022/07/23 13:07:55;;;;;;;8.57;5.00;;;;;;;;;;4980337;28;20203;-86
2022/07/23 13:10:25;;;;;;;7.57;4.88;;;;;;;;;;5013860;28;20632;-88
2022/07/23 13:16:16;;;;;;;7.95;4.22;;;;;;;;;;5007031;28;20242;-94
2022/07/23 13:18:43;;;;;;;9.60;5.53;;;;;;;;;;5013284;28;20199;-83
2022/07/23 13:21:13;;;;;;;10.43;5.03;;;;;;;;;;5015383;28;20235;-92
2022/07/23 13:27:04;;;;;;;9.05;4.90;;;;;;;;;;5016342;28;20182;-94
2022/07/23 13:29:32;;;;;;;6.00;4.18;;;;;;;;;;5014720;28;20218;-95
2022/07/23 13:32:08;;;;;;;7.35;4.50;;;;;;;;;;5015218;28;20210;-92
2022/07/23 13:34:34;;;;;;;10.88;4.65;;;;;;;;;;5014091;28;20199;-83
2022/07/23 13:37:02;;;;;;;8.93;5.10;;;;;;;;;;5015148;28;20199;-86
2022/07/23 13:42:52;;;;;;;9.15;5.22;;;;;;;;;;5016499;28;20202;-92
2022/07/23 13:48:43;;;;;;;7.22;4.43;;;;;;;;;;5014447;28;20225;-91
2022/07/23 13:51:11;;;;;;;7.32;4.53;;;;;;;;;;4996714;28;20215;-94
2022/07/23 13:53:42;;;;;;;8.65;5.22;;;;;;;;;;4996872;28;20604;-93
2022/07/23 13:56:09;;;;;;;10.07;4.43;;;;;;;;;;4992548;28;20206;-86
2022/07/23 13:58:37;;;;;;;9.63;4.53;;;;;;;;;;5013044;28;20203;-89
2022/07/23 14:01:04;;;;;;;9.00;4.78;;;;;;;;;;5013455;28;20219;-88
2022/07/23 14:06:54;;;;;;;8.57;5.00;;;;;;;;;;5013264;28;20214;-85
2022/07/23 14:09:22;;;;;;;10.82;5.43;;;;;;;;;;4994752;28;20206;-86
2022/07/23 14:11:50;;;;;;;6.97;4.80;;;;;;;;;;4980820;28;20214;-85
2022/07/23 14:14:18;;;;;;;9.13;4.82;;;;;;;;;;5012278;28;20740;-85
2022/07/23 14:23:30;;;;;;;6.28;4.38;;;;;;;;;;5014802;28;20171;-94
2022/07/23 14:26:00;;;;;;;5.85;4.63;;;;;;;;;;5013536;28;20203;-90
2022/07/23 14:28:28;;;;;;;7.57;4.95;;;;;;;;;;4991085;28;20263;-91
2022/07/23 14:30:55;;;;;;;9.90;5.13;;;;;;;;;;4993847;28;20258;-89
2022/07/23 14:33:25;;;;;;;6.90;4.88;;;;;;;;;;4993103;28;20215;-89
2022/07/23 14:36:05;;;;;;;9.60;5.40;;;;;;;;;;4976439;28;20208;-96
2022/07/23 14:38:34;;;;;;;14.43;5.78;;;;;;;;;;4993824;28;20291;-92
2022/07/23 14:41:06;;;;;;;5.70;5.07;;;;;;;;;;4977073;28;20299;-88
2022/07/23 14:43:33;;;;;;;6.53;4.80;;;;;;;;;;4994981;28;20207;-96
2022/07/23 14:46:03;;;;;;;8.35;4.95;;;;;;;;;;4961464;28;20235;-93
2022/07/23 14:48:31;;;;;;;7.50;4.50;;;;;;;;;;4994077;28;20212;-90
2022/07/23 14:50:59;;;;;;;8.35;4.88;;;;;;;;;;4993289;28;20204;-87
2022/07/23 14:53:27;;;;;;;9.48;5.22;;;;;;;;;;4993761;28;20212;-92
2022/07/23 14:55:57;;;;;;;6.07;4.68;;;;;;;;;;4993117;28;20212;-93
2022/07/23 14:58:23;;;;;;;7.47;4.57;;;;;;;;;;4992854;28;20290;-85
2022/07/23 15:00:54;;;;;;;11.85;4.72;;;;;;;;;;4994732;28;20204;-96
2022/07/23 15:03:22;;;;;;;8.57;5.82;;;;;;;;;;4975922;28;20263;-91
2022/07/23 15:05:50;;;;;;;10.82;4.85;;;;;;;;;;4992975;28;20613;-96
2022/07/23 15:08:18;;;;;;;5.95;4.75;;;;;;;;;;4976203;28;20255;-93
2022/07/23 15:10:58;;;;;;;7.97;5.78;;;;;;;;;;4978539;28;20290;-96
2022/07/23 15:13:29;;;;;;;7.25;5.28;;;;;;;;;;4991470;28;20593;-90
2022/07/23 15:15:56;;;;;;;9.18;5.53;;;;;;;;;;4992681;28;20258;-87
2022/07/23 15:18:24;;;;;;;8.90;5.00;;;;;;;;;;4960109;28;20207;-89
2022/07/23 15:20:52;;;;;;;9.93;4.90;;;;;;;;;;4983005;28;20204;-95
2022/07/23 15:23:20;;;;;;;7.18;4.50;;;;;;;;;;4997188;28;20204;-91
2022/07/23 15:25:48;;;;;;;5.32;4.82;;;;;;;;;;4998473;28;20211;-90
2022/07/23 15:31:46;;;;;;;6.53;4.53;;;;;;;;;;4997499;28;20223;-95
2022/07/23 15:34:14;;;;;;;6.95;4.80;;;;;;;;;;4997092;28;20235;-93
2022/07/23 15:36:41;;;;;;;6.65;4.85;;;;;;;;;;4996867;28;20575;-90
2022/07/23 15:39:09;;;;;;;9.90;5.57;;;;;;;;;;4995971;28;20571;-80
2022/07/23 15:41:36;;;;;;;5.22;4.60;;;;;;;;;;4996032;28;20654;-83
2022/07/23 15:44:03;;;;;;;6.78;4.68;;;;;;;;;;4995573;28;20204;-80
2022/07/23 15:49:53;;;;;;;9.10;5.18;;;;;;;;;;4995819;28;20168;-83
2022/07/23 15:52:20;;;;;;;8.60;5.07;;;;;;;;;;4995742;28;20215;-83
2022/07/23 15:54:47;;;;;;;6.85;4.40;;;;;;;;;;4978114;28;20211;-84
2022/07/23 16:00:36;;;;;;;7.90;5.15;;;;;;;;;;4995699;28;20160;-83
2022/07/23 16:03:03;;;;;;;11.25;5.28;;;;;;;;;;4995063;28;20312;-83
2022/07/23 16:05:32;;;;;;;6.80;5.15;;;;;;;;;;4977692;28;20211;-83
2022/07/23 16:11:34;;;;;;;8.80;5.18;;;;;;;;;;4995495;28;20195;-78
2022/07/23 16:14:01;;;;;;;9.57;4.55;;;;;;;;;;4994661;28;20204;-78
2022/07/23 16:16:28;;;;;;;10.32;4.93;;;;;;;;;;4995392;28;20239;-78
2022/07/23 16:18:56;;;;;;;9.63;5.43;;;;;;;;;;4977665;28;20207;-78
2022/07/23 16:21:24;;;;;;;7.38;5.00;;;;;;;;;;4994597;28;20204;-78
2022/07/23 16:23:53;;;;;;;7.38;4.82;;;;;;;;;;4978218;28;20207;-78
2022/07/23 16:26:20;;;;;;;9.93;4.68;;;;;;;;;;4995038;28;20196;-78
2022/07/23 16:29:14;;;;;;;6.20;4.72;;;;;;;;;;4995793;28;20199;-77
2022/07/23 16:31:41;;;;;;;8.82;4.88;;;;;;;;;;4996343;28;20701;-80
2022/07/23 16:34:09;;;;;;;10.27;4.93;;;;;;;;;;5015274;28;20199;-80
2022/07/23 16:36:38;;;;;;;6.90;4.05;;;;;;;;;;4981154;28;20214;-79
2022/07/23 16:39:05;;;;;;;8.60;5.50;;;;;;;;;;4996906;28;20261;-80
2022/07/23 16:41:36;;;;;;;6.60;4.82;;;;;;;;;;4996410;28;20211;-79
2022/07/23 16:44:06;;;;;;;6.72;4.63;;;;;;;;;;5013956;28;20203;-80
2022/07/23 16:46:39;;;;;;;10.95;5.43;;;;;;;;;;5015117;28;20679;-79
2022/07/23 16:49:10;;;;;;;7.95;4.68;;;;;;;;;;5019533;28;20208;-94
2022/07/23 17:01:42;;;;;;;11.40;6.40;;;;;;;;;;4956555;29;20217;-91
2022/07/23 17:04:09;;;;;;;12.63;7.03;;;;;;;;;;4954734;29;20209;-81
2022/07/23 17:06:36;;;;;;;12.13;8.35;;;;;;;;;;4954154;29;20208;-87
2022/07/23 17:09:04;;;;;;;8.63;6.38;;;;;;;;;;4937763;29;20210;-80
2022/07/23 17:11:31;;;;;;;12.32;10.25;;;;;;;;;;4952949;29;20197;-80
2022/07/23 17:13:58;;;;;;;25.48;21.50;;;;;;;;;;4952968;29;20202;-80
2022/07/23 17:16:25;;;;;;;18.10;14.90;;;;;;;;;;4950978;29;20234;-81
2022/07/23 17:22:15;;;;;;;10.02;6.10;;;;;;;;;;4953036;28;20633;-81
2022/07/23 17:28:22;;;;;;;10.10;5.15;;;;;;;;;;4967969;28;20204;-80
2022/07/23 17:30:49;;;;;;;37.08;7.25;;;;;;;;;;4995841;28;20261;-81
2022/07/23 17:33:16;;;;;;;9.13;4.80;;;;;;;;;;4996339;28;20258;-81
2022/07/23 17:35:43;;;;;;;11.35;5.38;;;;;;;;;;5012907;28;20666;-80
2022/07/23 17:38:13;;;;;;;11.25;6.18;;;;;;;;;;5013447;28;20226;-81
2022/07/23 17:40:40;;;;;;;9.05;5.22;;;;;;;;;;4979491;28;20211;-80
2022/07/23 17:43:07;;;;;;;11.88;5.97;;;;;;;;;;4994200;28;20231;-82
2022/07/23 17:45:37;;;;;;;8.75;5.20;;;;;;;;;;4995983;28;20195;-81
2022/07/23 17:48:05;;;;;;;8.80;5.03;;;;;;;;;;5013191;28;20234;-81
2022/07/23 17:50:35;;;;;;;6.63;4.60;;;;;;;;;;5012687;28;20642;-81
2022/07/23 17:53:04;;;;;;;8.70;5.32;;;;;;;;;;5012838;28;20203;-81